createdAt,value
2019-05-16T00:00:33.877Z,11.81
2019-05-16T00:03:02.813Z,11.79
2019-05-16T00:05:31.724Z,11.72
2019-05-16T00:08:00.632Z,11.64
2019-05-16T00:10:29.527Z,11.67
2019-05-16T00:12:59.504Z,11.52
2019-05-16T00:15:28.736Z,11.55
2019-05-16T00:17:58.317Z,11.52
2019-05-16T00:20:25.172Z,11.57
2019-05-16T00:22:54.067Z,11.55
2019-05-16T00:25:22.976Z,11.52
2019-05-16T00:27:51.903Z,11.50
2019-05-16T00:30:20.815Z,11.45
2019-05-16T00:32:49.756Z,11.44
2019-05-16T00:35:18.644Z,11.42
2019-05-16T00:37:48.434Z,11.38
2019-05-16T00:40:18.571Z,11.34
2019-05-16T00:42:45.471Z,11.32
2019-05-16T00:45:14.398Z,11.31
2019-05-16T00:47:43.328Z,11.34
2019-05-16T00:50:12.241Z,11.34
2019-05-16T00:52:41.175Z,11.29
2019-05-16T00:55:10.078Z,11.23
2019-05-16T00:57:39.182Z,11.15
2019-05-16T01:00:08.303Z,11.16
2019-05-16T01:02:38.162Z,11.18
2019-05-16T01:05:08.284Z,11.31
2019-05-16T01:07:35.077Z,11.18
2019-05-16T01:10:04.006Z,11.07
2019-05-16T01:12:32.911Z,11.08
2019-05-16T01:15:01.865Z,11.08
2019-05-16T01:17:30.787Z,11.04
2019-05-16T01:19:59.738Z,10.99
2019-05-16T01:22:29.415Z,10.92
2019-05-16T01:24:58.621Z,10.86
2019-05-16T01:27:27.780Z,10.85
2019-05-16T01:29:58.229Z,10.99
2019-05-16T01:32:25.485Z,10.79
2019-05-16T01:34:54.425Z,10.71
2019-05-16T01:37:23.343Z,10.68
2019-05-16T01:39:52.296Z,10.56
2019-05-16T01:42:21.199Z,10.51
2019-05-16T01:44:50.148Z,10.43
2019-05-16T01:47:19.086Z,10.40
2019-05-16T01:49:48.754Z,10.29
2019-05-16T01:52:17.804Z,10.25
2019-05-16T01:54:47.992Z,10.22
2019-05-16T01:57:14.868Z,10.15
2019-05-16T01:59:43.853Z,10.12
2019-05-16T02:02:12.784Z,10.08
2019-05-16T02:04:41.725Z,10.11
2019-05-16T02:07:10.662Z,10.11
2019-05-16T02:09:39.550Z,10.11
2019-05-16T02:12:10.833Z,10.09
2019-05-16T02:14:38.774Z,10.00
2019-05-16T02:17:10.887Z,9.94
2019-05-16T02:19:35.290Z,9.97
2019-05-16T02:22:04.251Z,9.97
2019-05-16T02:24:33.207Z,9.94
2019-05-16T02:27:02.081Z,9.97
2019-05-16T02:29:30.967Z,9.90
2019-05-16T02:32:01.958Z,9.87
2019-05-16T02:34:30.783Z,9.78
2019-05-16T02:37:14.678Z,9.77
2019-05-16T02:39:26.724Z,9.77
2019-05-16T02:41:55.657Z,9.77
2019-05-16T02:44:25.085Z,9.78
2019-05-16T02:46:53.484Z,9.73
2019-05-16T02:49:22.429Z,9.72
2019-05-16T02:51:51.424Z,9.71
2019-05-16T02:54:21.876Z,9.73
2019-05-16T02:56:50.654Z,9.75
2019-05-16T02:59:20.635Z,9.92
2019-05-16T03:01:47.074Z,9.77
2019-05-16T03:04:16.010Z,9.70
2019-05-16T03:06:44.943Z,9.89
2019-05-16T03:09:13.931Z,9.73
2019-05-16T03:11:42.794Z,9.70
2019-05-16T03:14:11.796Z,9.62
2019-05-16T03:16:41.754Z,9.62
2019-05-16T03:19:11.330Z,9.74
2019-05-16T03:21:41.336Z,9.57
2019-05-16T03:24:07.703Z,9.62
2019-05-16T03:26:36.675Z,9.61
2019-05-16T03:29:05.688Z,9.50
2019-05-16T03:31:34.739Z,9.46
2019-05-16T03:34:07.366Z,9.44
2019-05-16T03:36:34.562Z,9.43
2019-05-16T03:39:01.531Z,9.42
2019-05-16T03:41:30.974Z,9.40
2019-05-16T03:44:01.432Z,9.37
2019-05-16T03:46:30.946Z,9.37
2019-05-16T03:48:57.076Z,9.32
2019-05-16T03:51:25.961Z,9.35
2019-05-16T03:53:54.878Z,9.21
2019-05-16T03:56:23.772Z,9.27
2019-05-16T03:58:52.684Z,9.17
2019-05-16T04:01:21.574Z,9.19
2019-05-16T04:03:51.274Z,9.18
2019-05-16T04:06:22.097Z,9.30
2019-05-16T04:08:51.011Z,9.39
2019-05-16T04:11:19.550Z,9.44
2019-05-16T04:13:46.112Z,9.53
2019-05-16T04:16:15.016Z,9.54
2019-05-16T04:18:43.932Z,9.63
2019-05-16T04:21:12.883Z,9.59
2019-05-16T04:23:42.239Z,9.69
2019-05-16T04:26:11.493Z,9.76
2019-05-16T04:28:41.296Z,9.87
2019-05-16T04:31:10.881Z,9.91
2019-05-16T04:33:37.687Z,10.01
2019-05-16T04:36:06.790Z,10.07
2019-05-16T04:38:41.372Z,10.12
2019-05-16T04:41:04.696Z,10.19
2019-05-16T04:43:33.676Z,10.17
2019-05-16T04:46:02.644Z,10.25
2019-05-16T04:48:31.607Z,10.32
2019-05-16T04:51:01.299Z,10.42
2019-05-16T04:53:31.564Z,10.49
2019-05-16T04:56:01.389Z,10.56
2019-05-16T04:58:27.213Z,10.59
2019-05-16T05:00:56.121Z,10.61
2019-05-16T05:03:25.039Z,10.68
2019-05-16T05:05:53.983Z,10.75
2019-05-16T05:08:22.903Z,10.81
2019-05-16T05:10:52.183Z,10.91
2019-05-16T05:13:22.084Z,10.95
2019-05-16T05:15:50.989Z,10.95
2019-05-16T05:18:21.278Z,11.04
2019-05-16T05:20:47.626Z,11.06
2019-05-16T05:23:16.586Z,11.10
2019-05-16T05:25:45.484Z,11.12
2019-05-16T05:28:14.420Z,11.22
2019-05-16T05:30:43.335Z,11.33
2019-05-16T05:33:12.242Z,11.41
2019-05-16T05:35:44.185Z,11.45
2019-05-16T05:38:13.079Z,11.51
2019-05-16T05:40:41.995Z,11.64
2019-05-16T05:43:10.952Z,11.69
2019-05-16T05:45:40.217Z,11.77
2019-05-16T05:48:10.675Z,12.01
2019-05-16T05:50:40.016Z,12.28
2019-05-16T05:53:06.997Z,12.38
2019-05-16T05:55:35.881Z,12.38
2019-05-16T05:58:04.817Z,12.31
2019-05-16T06:00:33.720Z,12.36
2019-05-16T06:03:02.732Z,12.51
2019-05-16T06:05:31.617Z,12.55
2019-05-16T06:08:00.492Z,12.58
2019-05-16T06:10:30.403Z,12.50
2019-05-16T06:13:00.501Z,12.36
2019-05-16T06:15:27.303Z,12.33
2019-05-16T06:17:56.239Z,12.32
2019-05-16T06:20:25.130Z,12.38
2019-05-16T06:22:54.132Z,12.58
2019-05-16T06:25:23.459Z,12.76
2019-05-16T06:27:52.024Z,12.89
2019-05-16T06:30:21.549Z,12.98
2019-05-16T06:32:50.228Z,13.05
2019-05-16T06:35:20.570Z,13.21
2019-05-16T06:37:49.798Z,13.21
2019-05-16T06:40:16.566Z,13.73
2019-05-16T06:42:45.527Z,14.20
2019-05-16T06:45:14.479Z,14.60
2019-05-16T06:47:43.398Z,15.23
2019-05-16T06:50:12.354Z,16.44
2019-05-16T06:52:41.351Z,19.61
2019-05-16T06:55:10.415Z,19.68
2019-05-16T06:57:40.937Z,18.35
2019-05-16T07:00:10.675Z,17.37
2019-05-16T07:02:37.176Z,16.79
2019-05-16T07:05:06.348Z,16.28
2019-05-16T07:07:35.284Z,15.76
2019-05-16T07:10:04.804Z,15.22
2019-05-16T07:12:34.133Z,14.88
2019-05-16T07:15:02.456Z,14.65
2019-05-16T07:17:31.398Z,14.51
2019-05-16T07:20:06.314Z,14.42
2019-05-16T07:22:57.637Z,14.27
2019-05-16T07:25:33.361Z,14.18
2019-05-16T07:28:11.164Z,14.18
2019-05-16T07:30:43.265Z,14.21
2019-05-16T07:33:17.287Z,14.36
2019-05-16T07:36:06.869Z,14.46
2019-05-16T07:38:54.103Z,14.32
2019-05-16T07:41:23.470Z,14.39
2019-05-16T07:44:01.182Z,15.03
2019-05-16T07:46:44.617Z,15.87
2019-05-16T07:49:59.568Z,16.27
2019-05-16T07:52:20.929Z,16.27
2019-05-16T07:54:57.034Z,16.29
2019-05-16T08:01:08.066Z,16.10
2019-05-16T08:03:45.327Z,16.21
2019-05-16T08:06:17.117Z,16.34
2019-05-16T08:12:10.543Z,16.94
2019-05-16T08:14:51.930Z,16.65
2019-05-16T08:17:51.382Z,16.26
2019-05-16T08:20:21.086Z,16.40
2019-05-16T08:23:00.939Z,16.55
2019-05-16T08:25:31.404Z,17.33
2019-05-16T08:28:06.063Z,18.14
2019-05-16T08:31:05.746Z,18.18
2019-05-16T08:33:44.355Z,18.66
2019-05-16T08:36:20.936Z,18.43
2019-05-16T08:38:51.212Z,18.19
2019-05-16T08:41:26.787Z,17.90
2019-05-16T08:44:07.415Z,17.96
2019-05-16T08:46:42.314Z,18.18
2019-05-16T08:49:26.223Z,18.43
2019-05-16T08:52:01.598Z,18.98
2019-05-16T08:54:31.842Z,19.95
2019-05-16T08:57:27.777Z,20.14
2019-05-16T09:00:01.443Z,20.46
2019-05-16T09:02:42.237Z,22.31
2019-05-16T09:05:22.310Z,24.22
2019-05-16T09:08:01.452Z,25.12
2019-05-16T09:11:01.808Z,23.77
2019-05-16T09:13:36.835Z,22.90
2019-05-16T09:16:11.253Z,22.39
2019-05-16T09:18:41.177Z,21.57
2019-05-16T09:21:18.274Z,20.82
2019-05-16T09:23:51.933Z,20.31
2019-05-16T09:26:21.222Z,20.00
2019-05-16T09:28:57.003Z,19.45
2019-05-16T09:31:27.671Z,19.13
2019-05-16T09:33:58.374Z,19.25
2019-05-16T09:36:28.167Z,19.20
2019-05-16T09:39:01.607Z,19.17
2019-05-16T09:41:46.305Z,19.79
2019-05-16T09:44:02.559Z,20.84
2019-05-16T09:46:33.814Z,22.73
2019-05-16T09:49:16.813Z,23.15
2019-05-16T09:51:37.794Z,23.61
2019-05-16T09:54:24.382Z,23.89
2019-05-16T09:57:10.088Z,23.59
2019-05-16T09:59:46.772Z,23.81
2019-05-16T10:02:18.285Z,24.95
2019-05-16T10:04:49.379Z,26.02
2019-05-16T10:07:21.168Z,25.72
2019-05-16T10:09:52.980Z,25.43
2019-05-16T10:12:26.196Z,25.47
2019-05-16T10:14:53.263Z,24.64
2019-05-16T10:17:23.546Z,23.91
2019-05-16T10:20:02.882Z,23.63
2019-05-16T10:22:42.987Z,23.23
2019-05-16T10:25:19.570Z,22.92
2019-05-16T10:28:02.240Z,22.30
2019-05-16T10:30:31.671Z,21.94
2019-05-16T10:33:01.163Z,21.83
2019-05-16T10:35:30.381Z,23.04
2019-05-16T10:38:01.836Z,24.29
2019-05-16T10:40:33.414Z,25.37
2019-05-16T10:43:02.485Z,25.39
2019-05-16T10:45:36.921Z,25.38
2019-05-16T10:48:12.587Z,24.62
2019-05-16T10:50:47.062Z,24.10
2019-05-16T10:53:50.327Z,23.58
2019-05-16T10:55:48.581Z,23.05
2019-05-16T10:58:35.575Z,22.96
2019-05-16T11:01:19.419Z,22.75
2019-05-16T11:03:19.865Z,22.44
2019-05-16T11:06:05.528Z,22.37
2019-05-16T11:08:28.440Z,22.57
2019-05-16T11:11:02.731Z,22.74
2019-05-16T11:13:36.942Z,23.04
2019-05-16T11:16:11.247Z,22.61
2019-05-16T11:18:42.771Z,22.74
2019-05-16T11:21:13.251Z,23.30
2019-05-16T11:23:51.075Z,24.97
2019-05-16T11:26:31.196Z,24.95
2019-05-16T11:31:40.682Z,25.71
2019-05-16T11:34:31.693Z,26.07
2019-05-16T11:37:02.047Z,27.57
2019-05-16T11:39:32.776Z,26.13
2019-05-16T11:42:08.108Z,25.82
2019-05-16T11:44:38.047Z,25.42
2019-05-16T11:47:16.483Z,25.35
2019-05-16T11:49:43.385Z,25.68
2019-05-16T11:52:17.822Z,25.40
2019-05-16T11:54:46.769Z,24.99
2019-05-16T11:57:17.893Z,24.55
2019-05-16T11:59:52.296Z,24.09
2019-05-16T12:02:23.450Z,23.91
2019-05-16T12:04:57.754Z,23.99
2019-05-16T12:07:32.240Z,23.59
2019-05-16T12:10:09.496Z,23.45
2019-05-16T12:12:40.224Z,23.44
2019-05-16T12:15:11.894Z,23.29
2019-05-16T12:17:42.610Z,23.41
2019-05-16T12:20:21.918Z,22.94
2019-05-16T12:22:53.461Z,22.77
2019-05-16T12:25:31.311Z,22.50
2019-05-16T12:28:08.340Z,22.62
2019-05-16T12:30:40.709Z,22.83
2019-05-16T12:33:19.140Z,23.16
2019-05-16T12:35:49.207Z,23.22
2019-05-16T12:38:18.113Z,23.27
2019-05-16T12:40:47.996Z,23.00
2019-05-16T12:43:19.877Z,22.70
2019-05-16T12:45:56.954Z,22.28
2019-05-16T12:48:26.165Z,22.28
2019-05-16T12:50:58.948Z,22.33
2019-05-16T12:53:31.696Z,22.51
2019-05-16T12:56:03.572Z,22.73
2019-05-16T12:58:42.026Z,22.56
2019-05-16T13:01:07.895Z,22.36
2019-05-16T13:03:40.074Z,22.05
2019-05-16T13:06:09.290Z,21.83
2019-05-16T13:08:38.381Z,21.86
2019-05-16T13:11:10.370Z,21.79
2019-05-16T13:13:57.373Z,21.44
2019-05-16T13:16:11.112Z,21.48
2019-05-16T13:18:47.509Z,21.50
2019-05-16T13:21:34.117Z,21.39
2019-05-16T13:24:10.666Z,21.34
2019-05-16T13:26:43.221Z,21.31
2019-05-16T13:29:12.936Z,21.28
2019-05-16T13:31:42.049Z,21.43
2019-05-16T13:34:11.189Z,21.64
2019-05-16T13:36:40.504Z,21.88
2019-05-16T13:39:17.006Z,22.05
2019-05-16T13:41:53.887Z,22.09
2019-05-16T13:44:23.661Z,22.07
2019-05-16T13:46:52.934Z,21.95
2019-05-16T13:49:22.073Z,21.95
2019-05-16T13:51:51.186Z,21.89
2019-05-16T13:54:26.977Z,21.83
2019-05-16T13:57:03.462Z,21.66
2019-05-16T13:59:32.474Z,21.52
2019-05-16T14:05:12.070Z,21.58
2019-05-16T14:07:48.018Z,21.40
2019-05-16T14:10:29.659Z,21.06
2019-05-16T14:12:50.353Z,20.81
2019-05-16T14:15:31.406Z,20.75
2019-05-16T14:17:51.107Z,20.68
2019-05-16T14:20:21.016Z,20.82
2019-05-16T14:22:57.321Z,20.77
2019-05-16T14:25:33.855Z,20.67
2019-05-16T14:28:07.714Z,20.73
2019-05-16T14:30:57.370Z,20.40
2019-05-16T14:33:30.765Z,20.39
2019-05-16T14:36:02.300Z,20.34
2019-05-16T14:38:41.691Z,20.23
2019-05-16T14:41:37.216Z,20.22
2019-05-16T14:44:08.572Z,20.13
2019-05-16T14:46:48.298Z,19.83
2019-05-16T14:49:22.032Z,19.67
2019-05-16T14:52:09.429Z,19.65
2019-05-16T14:54:40.444Z,19.50
2019-05-16T14:57:16.712Z,19.45
2019-05-16T14:59:47.338Z,19.58
2019-05-16T15:02:18.042Z,19.66
2019-05-16T15:04:49.616Z,19.48
2019-05-16T15:07:22.288Z,19.43
2019-05-16T15:09:56.619Z,19.37
2019-05-16T15:12:26.636Z,19.34
2019-05-16T15:17:59.782Z,19.45
2019-05-16T15:20:30.074Z,19.39
2019-05-16T15:22:59.918Z,19.40
2019-05-16T15:25:30.669Z,19.27
2019-05-16T15:28:07.318Z,19.32
2019-05-16T15:30:39.376Z,19.18
2019-05-16T15:33:08.458Z,19.28
2019-05-16T15:35:37.933Z,19.37
2019-05-16T15:38:08.142Z,19.06
2019-05-16T15:40:48.152Z,19.21
2019-05-16T15:43:17.683Z,19.23
2019-05-16T15:45:53.759Z,19.15
2019-05-16T15:48:22.909Z,19.30
2019-05-16T15:50:51.752Z,19.32
2019-05-16T15:53:20.633Z,19.43
2019-05-16T15:55:49.575Z,19.59
2019-05-16T15:58:18.754Z,19.81
2019-05-16T16:00:48.489Z,19.86
2019-05-16T16:03:17.627Z,20.11
2019-05-16T16:05:45.372Z,19.84
2019-05-16T16:08:14.278Z,19.92
2019-05-16T16:10:43.207Z,19.77
2019-05-16T16:13:12.082Z,19.84
2019-05-16T16:15:50.387Z,19.88
2019-05-16T16:18:10.022Z,19.61
2019-05-16T16:20:38.899Z,19.30
2019-05-16T16:23:07.839Z,19.20
2019-05-16T16:25:36.719Z,18.98
2019-05-16T16:28:07.374Z,19.09
2019-05-16T16:30:37.394Z,19.18
2019-05-16T16:33:19.031Z,19.29
2019-05-16T16:35:32.970Z,19.08
2019-05-16T16:38:01.922Z,19.03
2019-05-16T16:40:30.840Z,19.00
2019-05-16T16:42:59.762Z,18.88
2019-05-16T16:45:28.660Z,18.82
2019-05-16T16:47:57.651Z,18.68
2019-05-16T16:50:26.678Z,18.47
2019-05-16T16:52:56.566Z,18.33
2019-05-16T16:55:24.319Z,18.25
2019-05-16T16:57:56.013Z,18.20
2019-05-16T17:00:22.165Z,18.18
2019-05-16T17:03:02.224Z,18.09
2019-05-16T17:05:19.987Z,17.87
2019-05-16T17:07:48.898Z,17.79
2019-05-16T17:10:17.853Z,17.71
2019-05-16T17:12:47.336Z,17.50
2019-05-16T17:15:17.074Z,17.46
2019-05-16T17:17:46.663Z,17.38
2019-05-16T17:20:13.604Z,17.37
2019-05-16T17:22:42.455Z,17.33
2019-05-16T17:25:11.439Z,17.26
2019-05-16T17:27:40.327Z,17.24
2019-05-16T17:30:16.644Z,17.26
2019-05-16T17:32:43.164Z,17.27
2019-05-16T17:35:12.098Z,17.29
2019-05-16T17:37:40.981Z,17.24
2019-05-16T17:40:10.112Z,17.21
2019-05-16T17:42:39.072Z,17.12
2019-05-16T17:45:08.186Z,17.02
2019-05-16T17:47:37.219Z,16.82
2019-05-16T17:50:07.497Z,16.70
2019-05-16T17:52:37.018Z,16.59
2019-05-16T17:55:07.243Z,16.52
2019-05-16T17:57:34.347Z,16.46
2019-05-16T18:00:03.507Z,16.36
2019-05-16T18:02:32.291Z,16.18
2019-05-16T18:05:01.200Z,16.14
2019-05-16T18:07:30.118Z,16.11
2019-05-16T18:09:59.044Z,16.08
2019-05-16T18:12:27.949Z,16.13
2019-05-16T18:14:57.198Z,15.89
2019-05-16T18:17:26.827Z,15.76
2019-05-16T18:19:54.671Z,15.49
2019-05-16T18:22:23.596Z,15.37
2019-05-16T18:24:52.471Z,15.47
2019-05-16T18:27:21.381Z,15.38
2019-05-16T18:29:50.269Z,15.27
2019-05-16T18:32:19.173Z,15.25
2019-05-16T18:34:48.047Z,15.24
2019-05-16T18:37:17.416Z,15.16
2019-05-16T18:39:47.427Z,15.06
2019-05-16T18:42:16.774Z,15.03
2019-05-16T18:44:43.692Z,14.91
2019-05-16T18:47:12.642Z,14.76
2019-05-16T18:49:41.555Z,14.76
2019-05-16T18:52:10.457Z,14.69
2019-05-16T18:54:39.365Z,14.71
2019-05-16T18:57:08.372Z,14.72
2019-05-16T18:59:37.290Z,14.74
2019-05-16T19:02:09.692Z,14.74
2019-05-16T19:04:37.691Z,14.68
2019-05-16T19:07:04.239Z,14.67
2019-05-16T19:09:33.161Z,14.66
2019-05-16T19:12:02.036Z,14.59
2019-05-16T19:14:30.942Z,14.57
2019-05-16T19:16:59.872Z,14.56
2019-05-16T19:19:28.770Z,14.56
2019-05-16T19:21:59.581Z,14.55
2019-05-16T19:24:27.819Z,14.58
2019-05-16T19:26:57.356Z,14.61
2019-05-16T19:29:26.310Z,14.65
2019-05-16T19:31:53.274Z,14.62
2019-05-16T19:34:22.183Z,14.60
2019-05-16T19:36:51.087Z,14.58
2019-05-16T19:39:19.973Z,14.52
2019-05-16T19:41:48.905Z,14.56
2019-05-16T19:44:17.887Z,14.58
2019-05-16T19:46:47.040Z,14.56
2019-05-16T19:49:15.658Z,14.57
2019-05-16T19:51:46.835Z,14.44
2019-05-16T19:54:13.442Z,14.37
2019-05-16T19:56:42.387Z,14.37
2019-05-16T19:59:11.306Z,14.39
2019-05-16T20:01:40.181Z,14.39
2019-05-16T20:04:09.115Z,14.45
2019-05-16T20:06:38.019Z,14.45
2019-05-16T20:09:07.676Z,14.44
2019-05-16T20:11:36.994Z,14.43
2019-05-16T20:14:07.323Z,14.33
2019-05-16T20:16:36.624Z,14.31
2019-05-16T20:19:03.297Z,14.32
2019-05-16T20:21:32.192Z,14.28
2019-05-16T20:24:01.095Z,14.33
2019-05-16T20:26:30.000Z,14.21
2019-05-16T20:28:59.544Z,14.25
2019-05-16T20:31:27.851Z,14.23
2019-05-16T20:33:56.721Z,14.26
2019-05-16T20:36:26.443Z,14.25
2019-05-16T20:38:54.605Z,14.26
2019-05-16T20:41:23.514Z,14.24
2019-05-16T20:43:52.422Z,14.21
2019-05-16T20:46:21.344Z,14.26
2019-05-16T20:48:50.264Z,14.26
2019-05-16T20:51:20.239Z,14.27
2019-05-16T20:53:49.781Z,14.23
2019-05-16T20:56:17.221Z,14.14
2019-05-16T20:58:46.697Z,14.15
2019-05-16T21:01:17.184Z,14.12
2019-05-16T21:03:43.735Z,14.11
2019-05-16T21:06:12.728Z,14.14
2019-05-16T21:08:41.631Z,14.13
2019-05-16T21:11:10.523Z,14.18
2019-05-16T21:13:39.454Z,14.11
2019-05-16T21:16:08.404Z,14.14
2019-05-16T21:18:37.834Z,14.12
2019-05-16T21:21:07.670Z,14.09
2019-05-16T21:23:36.579Z,14.10
2019-05-16T21:26:04.122Z,14.04
2019-05-16T21:28:33.042Z,13.99
2019-05-16T21:31:01.975Z,13.97
2019-05-16T21:33:30.862Z,13.95
2019-05-16T21:35:59.776Z,13.84
2019-05-16T21:38:28.655Z,13.84
2019-05-16T21:40:58.461Z,13.84
2019-05-16T21:43:27.089Z,13.82
2019-05-16T21:45:56.691Z,13.86
2019-05-16T21:48:24.230Z,13.83
2019-05-16T21:50:53.148Z,13.83
2019-05-16T21:53:22.024Z,13.85
2019-05-16T21:55:50.924Z,13.81
2019-05-16T21:58:19.819Z,13.77
2019-05-16T22:00:48.763Z,13.82
2019-05-16T22:03:17.916Z,13.78
2019-05-16T22:05:46.813Z,13.79
2019-05-16T22:08:16.761Z,13.77
2019-05-16T22:10:46.741Z,13.74
2019-05-16T22:13:13.508Z,13.80
2019-05-16T22:15:42.434Z,13.67
2019-05-16T22:18:11.321Z,13.58
2019-05-16T22:20:40.193Z,13.62
2019-05-16T22:23:09.146Z,13.65
2019-05-16T22:25:38.052Z,13.55
2019-05-16T22:28:07.355Z,13.55
2019-05-16T22:30:36.562Z,13.60
2019-05-16T22:33:08.819Z,13.59
2019-05-16T22:35:33.845Z,13.57
2019-05-16T22:38:02.782Z,13.56
2019-05-16T22:40:33.337Z,13.53
2019-05-16T22:43:00.609Z,13.52
2019-05-16T22:45:29.522Z,13.49
2019-05-16T22:47:58.431Z,13.47
2019-05-16T22:50:27.349Z,13.51
2019-05-16T22:52:56.957Z,13.42
2019-05-16T22:55:26.504Z,13.68
2019-05-16T22:57:56.390Z,13.54
2019-05-16T23:00:26.549Z,13.56
2019-05-16T23:02:56.643Z,13.47
2019-05-16T23:05:23.824Z,13.38
2019-05-16T23:08:02.888Z,13.40
2019-05-16T23:10:21.695Z,13.33
2019-05-16T23:12:50.600Z,13.58
2019-05-16T23:15:19.503Z,13.43
2019-05-16T23:17:48.487Z,13.45
2019-05-16T23:20:17.320Z,13.38
2019-05-16T23:22:46.974Z,13.69
2019-05-16T23:25:17.180Z,13.52
2019-05-16T23:27:44.154Z,13.45
2019-05-16T23:30:13.099Z,13.48
2019-05-16T23:32:42.019Z,13.46
2019-05-16T23:35:11.072Z,13.42
2019-05-16T23:37:43.161Z,13.38
2019-05-16T23:40:12.069Z,13.28
2019-05-16T23:42:40.966Z,13.35
2019-05-16T23:45:09.892Z,13.26
2019-05-16T23:47:38.809Z,13.31
2019-05-16T23:50:07.908Z,13.28
2019-05-16T23:52:37.082Z,13.31
2019-05-16T23:55:08.153Z,13.32
2019-05-16T23:57:37.125Z,13.49
